Walla Walla, Washington
Current Conditions -  °F | °C
As of 10:53 PM on Friday 19 Dec 2014 (Local Time) from KALW Reporting Station
Clear Clear  
Wind Chill: 34°   Ceiling: Unl
Heat Index: 40°   Visibility: 10mi
Dew Point: 34°   Wind: 8mph
Humidity: 79%   Direction: 100°E
Pressure: 29.97"   Gusts: NA
Location:  46.07°N, 118.34°W
Report Text: KALW 200653Z AUTO 10007KT 10SM CLR 04/01 A2997 RMK AO2 SLP154 T00440011
Loading
Personal Weather Stations






























Interactive Weather Map New forecast layout! Learn more

10-Day Weather Forecast

Advertisements
Track Severe Weather on mobile